This demonstration page uses our WeatherBlox Daily Observations layout. Learn more.

38.88101, -77.10428

Hourly Observations for August 8, 2019

Temp ( °F °C ) Dew Point ( °F °C ) Humidity (%) Winds ( mph kmh ) Pressure ( in mb ) Visibility ( mi km ) Precip ( " mm )
12:52 am 00:52 Partly Cloudy 73 22.8 69 20.6 87 87 S 5 7 29.8 1009 10 16.09344 0 0
1:02 am 01:02 Partly Cloudy with Nearby Thunderstorms 73 22.8 69 20.6 87 87 S 6 9 29.8 1009 10 16.09344 0 0
1:22 am 01:22 Partly Cloudy with Thunderstorms 73 22.8 69 20.6 87 87 S 7 11 29.8 1009 10 16.09344 0 0
1:44 am 01:44 Partly Cloudy 73 22.8 68 20 84 84 SSW 8 13 29.8 1009 10 16.09344 0 0
1:52 am 01:52 Mostly Cloudy 73 22.8 68 20 84 84 SSW 7 11 29.8 1009 10 16.09344 0 0
2:52 am 02:52 Mostly Cloudy 72 22.2 68 20 87 87 SSE 3 6 29.77 1008 10 16.09344 0 0
3:52 am 03:52 Mostly Cloudy 73 22.8 67 19.4 81 81 Calm 29.77 1008 10 16.09344 0 0
4:52 am 04:52 Mostly Cloudy 73 22.8 66 18.9 79 79 SSW 3 6 29.77 1008 10 16.09344 0 0
5:52 am 05:52 Partly Cloudy 72 22.2 66 18.9 82 82 SSW 7 11 29.77 1008 10 16.09344 0 0
7:52 am 07:52 Mostly Sunny 74 23.3 67 19.4 79 79 SSW 5 7 29.8 1009 10 16.09344 0 0
8:52 am 08:52 Sunny 79 26.1 68 20 69 69 WSW 5 7 29.8 1009 10 16.09344 0 0
9:52 am 09:52 Mostly Sunny 84 28.9 66 18.9 55 55 NW 9 15 29.8 1009 10 16.09344 0 0
10:52 am 10:52 Mostly Sunny 86 30 66 18.9 51 51 NNW 10 17 29.8 1009 10 16.09344 0 0
11:52 am 11:52 Mostly Cloudy 86 30 64 17.8 48 48 N 10 17 29.77 1008 10 16.09344 0 0
12:52 pm 12:52 Partly Cloudy 89 31.7 62 16.7 41 41 VRB 3 6 29.77 1008 10 16.09344 0 0
1:52 pm 13:52 Partly Cloudy 90 32.2 62 16.7 39 39 WNW 12 19 29.77 1008 10 16.09344 0 0
2:52 pm 14:52 Partly Cloudy 87 30.6 63 17.2 45 45 N 9 15 29.77 1008 10 16.09344 0 0
3:52 pm 15:52 Partly Cloudy 91 32.8 59 15 34 34 VRB 6 9 29.74 1007 10 16.09344 0 0
4:52 pm 16:52 Mostly Sunny 91 32.8 59 15 34 34 W 10 17 29.74 1007 10 16.09344 0 0
5:52 pm 17:52 Mostly Sunny 91 32.8 57 13.9 32 32 WSW 13 20 29.71 1006 10 16.09344 0 0
6:52 pm 18:52 Mostly Cloudy 90 32.2 57 13.9 33 33 W 15 24 29.74 1007 10 16.09344 0 0
7:52 pm 19:52 Mostly Cloudy 89 31.7 58 14.4 35 35 W 12 19 29.74 1007 10 16.09344 0 0
8:52 pm 20:52 Partly Cloudy 86 30 59 15 40 40 W 10 17 29.77 1008 10 16.09344 0 0
9:52 pm 21:52 Partly Cloudy 84 28.9 59 15 43 43 W 9 15 29.77 1008 10 16.09344 0 0
10:52 pm 22:52 Partly Cloudy 83 28.3 60 15.6 46 46 W 10 17 29.77 1008 10 16.09344 0 0
11:52 pm 23:52 Mostly Cloudy 82 27.8 60 15.6 47 47 W 7 11 29.77 1008 10 16.09344 0 0

Powered by AerisWeather